sensor_id;sensor_type;location;lat;lon;timestamp;P1;durP1;ratioP1;P2;durP2;ratioP2
18738;SDS011;9498;51.862;19.460;2022-12-08T00:01:11;11.83;;;4.37;;
18738;SDS011;9498;51.862;19.460;2022-12-08T00:03:38;14.57;;;4.57;;
18738;SDS011;9498;51.862;19.460;2022-12-08T00:06:13;14.73;;;3.70;;
18738;SDS011;9498;51.862;19.460;2022-12-08T00:08:59;11.60;;;4.47;;
18738;SDS011;9498;51.862;19.460;2022-12-08T00:11:44;9.40;;;3.50;;
18738;SDS011;9498;51.862;19.460;2022-12-08T00:14:11;9.90;;;3.27;;
18738;SDS011;9498;51.862;19.460;2022-12-08T00:16:38;11.60;;;4.00;;
18738;SDS011;9498;51.862;19.460;2022-12-08T00:19:05;7.57;;;3.47;;
18738;SDS011;9498;51.862;19.460;2022-12-08T00:24:40;11.13;;;4.20;;
18738;SDS011;9498;51.862;19.460;2022-12-08T00:27:09;7.30;;;3.40;;
18738;SDS011;9498;51.862;19.460;2022-12-08T00:29:36;9.77;;;3.83;;
18738;SDS011;9498;51.862;19.460;2022-12-08T00:32:04;8.33;;;4.17;;
18738;SDS011;9498;51.862;19.460;2022-12-08T00:34:31;12.73;;;4.47;;
18738;SDS011;9498;51.862;19.460;2022-12-08T00:37:00;12.07;;;4.53;;
18738;SDS011;9498;51.862;19.460;2022-12-08T00:39:27;8.17;;;4.07;;
18738;SDS011;9498;51.862;19.460;2022-12-08T00:41:54;10.85;;;4.68;;
18738;SDS011;9498;51.862;19.460;2022-12-08T00:44:40;10.80;;;4.13;;
18738;SDS011;9498;51.862;19.460;2022-12-08T00:47:07;9.37;;;4.33;;
18738;SDS011;9498;51.862;19.460;2022-12-08T00:49:34;16.97;;;5.23;;
18738;SDS011;9498;51.862;19.460;2022-12-08T00:52:03;10.27;;;4.13;;
18738;SDS011;9498;51.862;19.460;2022-12-08T00:54:31;10.57;;;4.83;;
18738;SDS011;9498;51.862;19.460;2022-12-08T00:56:58;13.90;;;5.43;;
18738;SDS011;9498;51.862;19.460;2022-12-08T00:59:25;12.30;;;5.07;;
18738;SDS011;9498;51.862;19.460;2022-12-08T01:01:52;15.20;;;5.50;;
18738;SDS011;9498;51.862;19.460;2022-12-08T01:04:19;13.77;;;6.17;;
18738;SDS011;9498;51.862;19.460;2022-12-08T01:06:47;17.88;;;7.40;;
18738;SDS011;9498;51.862;19.460;2022-12-08T01:09:16;16.47;;;6.80;;
18738;SDS011;9498;51.862;19.460;2022-12-08T01:11:43;16.13;;;6.03;;
18738;SDS011;9498;51.862;19.460;2022-12-08T01:14:11;17.77;;;6.90;;
18738;SDS011;9498;51.862;19.460;2022-12-08T01:16:38;17.43;;;6.60;;
18738;SDS011;9498;51.862;19.460;2022-12-08T01:19:06;18.93;;;6.80;;
18738;SDS011;9498;51.862;19.460;2022-12-08T01:21:33;16.07;;;6.40;;
18738;SDS011;9498;51.862;19.460;2022-12-08T01:24:00;15.93;;;7.00;;
18738;SDS011;9498;51.862;19.460;2022-12-08T01:26:29;17.33;;;8.10;;
18738;SDS011;9498;51.862;19.460;2022-12-08T01:28:56;20.33;;;8.00;;
18738;SDS011;9498;51.862;19.460;2022-12-08T01:31:23;22.52;;;9.10;;
18738;SDS011;9498;51.862;19.460;2022-12-08T01:33:50;17.27;;;8.60;;
18738;SDS011;9498;51.862;19.460;2022-12-08T01:36:19;21.70;;;8.63;;
18738;SDS011;9498;51.862;19.460;2022-12-08T01:38:46;23.80;;;9.53;;
18738;SDS011;9498;51.862;19.460;2022-12-08T01:41:14;25.37;;;10.00;;
18738;SDS011;9498;51.862;19.460;2022-12-08T01:43:48;21.37;;;9.67;;
18738;SDS011;9498;51.862;19.460;2022-12-08T01:46:17;25.77;;;11.03;;
18738;SDS011;9498;51.862;19.460;2022-12-08T01:48:44;25.57;;;10.43;;
18738;SDS011;9498;51.862;19.460;2022-12-08T01:51:11;23.13;;;10.63;;
18738;SDS011;9498;51.862;19.460;2022-12-08T01:53:39;30.43;;;10.60;;
18738;SDS011;9498;51.862;19.460;2022-12-08T01:56:07;28.45;;;10.80;;
18738;SDS011;9498;51.862;19.460;2022-12-08T01:58:36;22.37;;;9.47;;
18738;SDS011;9498;51.862;19.460;2022-12-08T02:01:06;22.67;;;8.87;;
18738;SDS011;9498;51.862;19.460;2022-12-08T02:03:34;19.00;;;8.60;;
18738;SDS011;9498;51.862;19.460;2022-12-08T02:06:04;25.77;;;9.77;;
18738;SDS011;9498;51.862;19.460;2022-12-08T02:08:32;26.20;;;9.73;;
18738;SDS011;9498;51.862;19.460;2022-12-08T02:10:59;25.07;;;10.50;;
18738;SDS011;9498;51.862;19.460;2022-12-08T02:13:26;26.33;;;9.77;;
18738;SDS011;9498;51.862;19.460;2022-12-08T02:15:57;26.23;;;9.83;;
18738;SDS011;9498;51.862;19.460;2022-12-08T02:18:32;28.30;;;10.43;;
18738;SDS011;9498;51.862;19.460;2022-12-08T02:21:02;28.77;;;10.60;;
18738;SDS011;9498;51.862;19.460;2022-12-08T02:23:33;30.73;;;12.93;;
18738;SDS011;9498;51.862;19.460;2022-12-08T02:31:55;24.67;;;10.37;;
18738;SDS011;9498;51.862;19.460;2022-12-08T02:34:28;23.67;;;10.10;;
18738;SDS011;9498;51.862;19.460;2022-12-08T02:36:56;27.83;;;10.73;;
18738;SDS011;9498;51.862;19.460;2022-12-08T02:39:32;27.17;;;10.90;;
18738;SDS011;9498;51.862;19.460;2022-12-08T02:42:02;28.50;;;10.20;;
18738;SDS011;9498;51.862;19.460;2022-12-08T02:44:33;30.80;;;10.83;;
18738;SDS011;9498;51.862;19.460;2022-12-08T02:47:07;29.43;;;10.43;;
18738;SDS011;9498;51.862;19.460;2022-12-08T02:49:37;34.72;;;13.50;;
18738;SDS011;9498;51.862;19.460;2022-12-08T02:52:05;30.30;;;11.80;;
18738;SDS011;9498;51.862;19.460;2022-12-08T02:54:32;31.20;;;11.20;;
18738;SDS011;9498;51.862;19.460;2022-12-08T02:57:12;29.07;;;10.93;;
18738;SDS011;9498;51.862;19.460;2022-12-08T02:59:48;32.53;;;10.77;;
18738;SDS011;9498;51.862;19.460;2022-12-08T03:02:31;27.60;;;10.43;;
18738;SDS011;9498;51.862;19.460;2022-12-08T03:05:04;31.73;;;10.83;;
18738;SDS011;9498;51.862;19.460;2022-12-08T03:07:33;27.70;;;10.10;;
18738;SDS011;9498;51.862;19.460;2022-12-08T03:10:02;32.07;;;11.37;;
18738;SDS011;9498;51.862;19.460;2022-12-08T03:12:33;27.13;;;10.70;;
18738;SDS011;9498;51.862;19.460;2022-12-08T03:15:03;32.60;;;12.73;;
18738;SDS011;9498;51.862;19.460;2022-12-08T03:17:32;25.00;;;11.40;;
18738;SDS011;9498;51.862;19.460;2022-12-08T03:20:02;28.57;;;12.13;;
18738;SDS011;9498;51.862;19.460;2022-12-08T03:22:31;26.53;;;9.87;;
18738;SDS011;9498;51.862;19.460;2022-12-08T03:24:59;23.57;;;9.47;;
18738;SDS011;9498;51.862;19.460;2022-12-08T03:27:27;25.00;;;10.33;;
18738;SDS011;9498;51.862;19.460;2022-12-08T03:29:55;30.47;;;10.60;;
18738;SDS011;9498;51.862;19.460;2022-12-08T03:32:25;25.67;;;10.70;;
18738;SDS011;9498;51.862;19.460;2022-12-08T03:34:55;27.70;;;10.33;;
18738;SDS011;9498;51.862;19.460;2022-12-08T03:37:23;24.03;;;9.67;;
18738;SDS011;9498;51.862;19.460;2022-12-08T03:39:51;25.85;;;11.07;;
18738;SDS011;9498;51.862;19.460;2022-12-08T03:42:19;24.80;;;10.03;;
18738;SDS011;9498;51.862;19.460;2022-12-08T03:44:46;27.50;;;8.80;;
18738;SDS011;9498;51.862;19.460;2022-12-08T03:47:13;25.87;;;8.90;;
18738;SDS011;9498;51.862;19.460;2022-12-08T03:49:40;23.63;;;8.63;;
18738;SDS011;9498;51.862;19.460;2022-12-08T03:52:07;26.93;;;9.40;;
18738;SDS011;9498;51.862;19.460;2022-12-08T03:54:35;24.97;;;9.03;;
18738;SDS011;9498;51.862;19.460;2022-12-08T03:57:03;24.40;;;8.97;;
18738;SDS011;9498;51.862;19.460;2022-12-08T03:59:30;25.43;;;8.97;;
18738;SDS011;9498;51.862;19.460;2022-12-08T04:01:58;22.83;;;8.43;;
18738;SDS011;9498;51.862;19.460;2022-12-08T04:04:25;22.10;;;8.37;;
18738;SDS011;9498;51.862;19.460;2022-12-08T04:06:52;27.73;;;10.63;;
18738;SDS011;9498;51.862;19.460;2022-12-08T04:09:19;18.73;;;8.73;;
18738;SDS011;9498;51.862;19.460;2022-12-08T04:11:47;22.43;;;7.73;;
18738;SDS011;9498;51.862;19.460;2022-12-08T04:14:15;20.87;;;8.03;;
18738;SDS011;9498;51.862;19.460;2022-12-08T04:16:43;16.10;;;7.63;;
18738;SDS011;9498;51.862;19.460;2022-12-08T04:19:10;21.73;;;8.47;;
18738;SDS011;9498;51.862;19.460;2022-12-08T04:21:37;20.40;;;7.97;;
18738;SDS011;9498;51.862;19.460;2022-12-08T04:24:04;22.63;;;8.50;;
18738;SDS011;9498;51.862;19.460;2022-12-08T04:26:32;20.67;;;8.27;;
18738;SDS011;9498;51.862;19.460;2022-12-08T04:28:59;19.83;;;7.73;;
18738;SDS011;9498;51.862;19.460;2022-12-08T04:31:28;25.20;;;8.80;;
18738;SDS011;9498;51.862;19.460;2022-12-08T04:33:55;19.90;;;8.70;;
18738;SDS011;9498;51.862;19.460;2022-12-08T04:36:22;18.97;;;8.27;;
18738;SDS011;9498;51.862;19.460;2022-12-08T04:38:49;19.50;;;7.93;;
18738;SDS011;9498;51.862;19.460;2022-12-08T04:41:16;20.27;;;8.37;;
18738;SDS011;9498;51.862;19.460;2022-12-08T04:43:44;19.13;;;8.07;;
18738;SDS011;9498;51.862;19.460;2022-12-08T04:46:11;23.67;;;9.00;;
18738;SDS011;9498;51.862;19.460;2022-12-08T04:48:39;16.30;;;8.00;;
18738;SDS011;9498;51.862;19.460;2022-12-08T04:51:09;23.10;;;9.43;;
18738;SDS011;9498;51.862;19.460;2022-12-08T04:53:38;26.03;;;10.13;;
18738;SDS011;9498;51.862;19.460;2022-12-08T04:56:09;28.67;;;11.85;;
18738;SDS011;9498;51.862;19.460;2022-12-08T04:58:37;24.93;;;9.73;;
18738;SDS011;9498;51.862;19.460;2022-12-08T05:01:04;29.67;;;10.97;;
18738;SDS011;9498;51.862;19.460;2022-12-08T05:03:31;25.53;;;10.07;;
18738;SDS011;9498;51.862;19.460;2022-12-08T05:06:00;23.87;;;10.63;;
18738;SDS011;9498;51.862;19.460;2022-12-08T05:08:27;23.70;;;10.43;;
18738;SDS011;9498;51.862;19.460;2022-12-08T05:11:00;25.13;;;9.83;;
18738;SDS011;9498;51.862;19.460;2022-12-08T05:13:27;26.50;;;10.90;;
18738;SDS011;9498;51.862;19.460;2022-12-08T05:16:00;31.10;;;11.67;;
18738;SDS011;9498;51.862;19.460;2022-12-08T05:18:27;25.00;;;10.10;;
18738;SDS011;9498;51.862;19.460;2022-12-08T05:20:54;32.10;;;9.83;;
18738;SDS011;9498;51.862;19.460;2022-12-08T05:23:23;27.03;;;10.30;;
18738;SDS011;9498;51.862;19.460;2022-12-08T05:25:50;22.77;;;9.93;;
18738;SDS011;9498;51.862;19.460;2022-12-08T05:28:18;27.83;;;9.97;;
18738;SDS011;9498;51.862;19.460;2022-12-08T05:30:45;26.07;;;9.77;;
18738;SDS011;9498;51.862;19.460;2022-12-08T05:33:12;28.13;;;9.33;;
18738;SDS011;9498;51.862;19.460;2022-12-08T05:35:40;27.47;;;10.47;;
18738;SDS011;9498;51.862;19.460;2022-12-08T05:38:07;26.10;;;9.70;;
18738;SDS011;9498;51.862;19.460;2022-12-08T05:40:37;33.43;;;10.50;;
18738;SDS011;9498;51.862;19.460;2022-12-08T05:43:04;29.80;;;10.33;;
18738;SDS011;9498;51.862;19.460;2022-12-08T05:45:31;24.93;;;10.23;;
18738;SDS011;9498;51.862;19.460;2022-12-08T05:47:59;29.73;;;10.00;;
18738;SDS011;9498;51.862;19.460;2022-12-08T05:50:26;26.25;;;11.13;;
18738;SDS011;9498;51.862;19.460;2022-12-08T05:52:53;27.80;;;11.10;;
18738;SDS011;9498;51.862;19.460;2022-12-08T05:55:20;26.10;;;10.70;;
18738;SDS011;9498;51.862;19.460;2022-12-08T05:57:49;27.70;;;11.07;;
18738;SDS011;9498;51.862;19.460;2022-12-08T06:00:16;26.90;;;10.40;;
18738;SDS011;9498;51.862;19.460;2022-12-08T06:02:44;27.43;;;11.37;;
18738;SDS011;9498;51.862;19.460;2022-12-08T06:05:11;26.57;;;11.33;;
18738;SDS011;9498;51.862;19.460;2022-12-08T06:07:38;30.83;;;11.87;;
18738;SDS011;9498;51.862;19.460;2022-12-08T06:10:06;22.87;;;10.40;;
18738;SDS011;9498;51.862;19.460;2022-12-08T06:12:33;32.30;;;11.37;;
18738;SDS011;9498;51.862;19.460;2022-12-08T06:15:02;33.27;;;10.40;;
18738;SDS011;9498;51.862;19.460;2022-12-08T06:17:29;29.23;;;12.13;;
18738;SDS011;9498;51.862;19.460;2022-12-08T06:19:57;25.37;;;10.70;;
18738;SDS011;9498;51.862;19.460;2022-12-08T06:22:24;26.77;;;10.80;;
18738;SDS011;9498;51.862;19.460;2022-12-08T06:24:51;31.43;;;11.57;;
18738;SDS011;9498;51.862;19.460;2022-12-08T06:27:18;29.43;;;12.27;;
18738;SDS011;9498;51.862;19.460;2022-12-08T06:29:46;33.83;;;12.47;;
18738;SDS011;9498;51.862;19.460;2022-12-08T06:32:14;28.20;;;11.50;;
18738;SDS011;9498;51.862;19.460;2022-12-08T06:34:41;33.20;;;12.40;;
18738;SDS011;9498;51.862;19.460;2022-12-08T06:37:09;29.77;;;13.03;;
18738;SDS011;9498;51.862;19.460;2022-12-08T06:39:36;34.77;;;13.40;;
18738;SDS011;9498;51.862;19.460;2022-12-08T06:42:03;37.33;;;14.17;;
18738;SDS011;9498;51.862;19.460;2022-12-08T06:44:48;42.20;;;16.67;;
18738;SDS011;9498;51.862;19.460;2022-12-08T06:47:17;45.17;;;16.30;;
18738;SDS011;9498;51.862;19.460;2022-12-08T06:49:46;63.17;;;20.87;;
18738;SDS011;9498;51.862;19.460;2022-12-08T06:52:13;51.33;;;19.57;;
18738;SDS011;9498;51.862;19.460;2022-12-08T06:54:40;54.43;;;17.47;;
18738;SDS011;9498;51.862;19.460;2022-12-08T06:57:08;48.07;;;16.77;;
18738;SDS011;9498;51.862;19.460;2022-12-08T06:59:35;38.07;;;14.83;;
18738;SDS011;9498;51.862;19.460;2022-12-08T07:02:02;38.73;;;16.73;;
18738;SDS011;9498;51.862;19.460;2022-12-08T07:04:31;43.20;;;15.83;;
18738;SDS011;9498;51.862;19.460;2022-12-08T07:06:59;38.20;;;14.23;;
18738;SDS011;9498;51.862;19.460;2022-12-08T07:09:26;32.80;;;13.63;;
18738;SDS011;9498;51.862;19.460;2022-12-08T07:11:53;37.50;;;14.20;;
18738;SDS011;9498;51.862;19.460;2022-12-08T07:14:21;33.47;;;13.30;;
18738;SDS011;9498;51.862;19.460;2022-12-08T07:16:49;36.43;;;15.10;;
18738;SDS011;9498;51.862;19.460;2022-12-08T07:19:16;37.00;;;14.13;;
18738;SDS011;9498;51.862;19.460;2022-12-08T07:21:45;37.50;;;13.53;;
18738;SDS011;9498;51.862;19.460;2022-12-08T07:24:12;42.73;;;14.37;;
18738;SDS011;9498;51.862;19.460;2022-12-08T07:26:39;44.43;;;14.47;;
18738;SDS011;9498;51.862;19.460;2022-12-08T07:29:08;39.13;;;14.77;;
18738;SDS011;9498;51.862;19.460;2022-12-08T07:31:35;36.73;;;14.37;;
18738;SDS011;9498;51.862;19.460;2022-12-08T07:34:03;38.10;;;14.30;;
18738;SDS011;9498;51.862;19.460;2022-12-08T07:36:30;35.67;;;15.80;;
18738;SDS011;9498;51.862;19.460;2022-12-08T07:38:59;37.13;;;15.77;;
18738;SDS011;9498;51.862;19.460;2022-12-08T07:41:26;48.90;;;16.47;;
18738;SDS011;9498;51.862;19.460;2022-12-08T07:43:54;54.13;;;23.20;;
18738;SDS011;9498;51.862;19.460;2022-12-08T07:46:22;68.20;;;27.17;;
18738;SDS011;9498;51.862;19.460;2022-12-08T07:48:50;77.30;;;29.43;;
18738;SDS011;9498;51.862;19.460;2022-12-08T07:51:17;73.77;;;29.23;;
18738;SDS011;9498;51.862;19.460;2022-12-08T07:53:46;69.57;;;28.70;;
18738;SDS011;9498;51.862;19.460;2022-12-08T07:56:14;57.60;;;20.07;;
18738;SDS011;9498;51.862;19.460;2022-12-08T07:58:42;57.23;;;21.50;;
18738;SDS011;9498;51.862;19.460;2022-12-08T08:01:18;52.97;;;21.10;;
18738;SDS011;9498;51.862;19.460;2022-12-08T08:03:47;60.43;;;22.23;;
18738;SDS011;9498;51.862;19.460;2022-12-08T08:06:15;62.63;;;25.77;;
18738;SDS011;9498;51.862;19.460;2022-12-08T08:08:42;61.43;;;23.63;;
18738;SDS011;9498;51.862;19.460;2022-12-08T08:11:09;71.17;;;24.67;;
18738;SDS011;9498;51.862;19.460;2022-12-08T08:13:38;57.97;;;22.27;;
18738;SDS011;9498;51.862;19.460;2022-12-08T08:16:06;74.17;;;24.43;;
18738;SDS011;9498;51.862;19.460;2022-12-08T08:18:34;63.77;;;24.37;;
18738;SDS011;9498;51.862;19.460;2022-12-08T08:21:01;58.13;;;23.87;;
18738;SDS011;9498;51.862;19.460;2022-12-08T08:23:29;66.40;;;24.70;;
18738;SDS011;9498;51.862;19.460;2022-12-08T08:25:57;68.73;;;25.47;;
18738;SDS011;9498;51.862;19.460;2022-12-08T08:28:25;68.07;;;24.40;;
18738;SDS011;9498;51.862;19.460;2022-12-08T08:30:54;84.37;;;28.87;;
18738;SDS011;9498;51.862;19.460;2022-12-08T08:33:21;75.30;;;26.77;;
18738;SDS011;9498;51.862;19.460;2022-12-08T08:35:50;65.13;;;25.03;;
18738;SDS011;9498;51.862;19.460;2022-12-08T08:38:17;63.63;;;24.60;;
18738;SDS011;9498;51.862;19.460;2022-12-08T08:40:44;60.57;;;25.30;;
18738;SDS011;9498;51.862;19.460;2022-12-08T08:43:11;61.30;;;23.83;;
18738;SDS011;9498;51.862;19.460;2022-12-08T08:45:54;64.17;;;23.93;;
18738;SDS011;9498;51.862;19.460;2022-12-08T08:48:22;72.60;;;25.87;;
18738;SDS011;9498;51.862;19.460;2022-12-08T08:50:49;65.73;;;24.07;;
18738;SDS011;9498;51.862;19.460;2022-12-08T08:53:16;56.93;;;22.40;;
18738;SDS011;9498;51.862;19.460;2022-12-08T08:55:43;57.10;;;22.50;;
18738;SDS011;9498;51.862;19.460;2022-12-08T08:58:10;60.17;;;22.77;;
18738;SDS011;9498;51.862;19.460;2022-12-08T09:00:38;53.40;;;22.10;;
18738;SDS011;9498;51.862;19.460;2022-12-08T09:03:06;57.80;;;21.70;;
18738;SDS011;9498;51.862;19.460;2022-12-08T09:05:33;53.90;;;21.10;;
18738;SDS011;9498;51.862;19.460;2022-12-08T09:08:01;138.97;;;47.57;;
18738;SDS011;9498;51.862;19.460;2022-12-08T09:10:28;53.87;;;22.10;;
18738;SDS011;9498;51.862;19.460;2022-12-08T09:12:55;50.40;;;20.70;;
18738;SDS011;9498;51.862;19.460;2022-12-08T09:15:22;51.43;;;20.87;;
18738;SDS011;9498;51.862;19.460;2022-12-08T09:17:50;52.60;;;21.73;;
18738;SDS011;9498;51.862;19.460;2022-12-08T09:20:18;49.83;;;21.83;;
18738;SDS011;9498;51.862;19.460;2022-12-08T09:22:45;61.77;;;22.93;;
18738;SDS011;9498;51.862;19.460;2022-12-08T09:25:13;59.27;;;22.53;;
18738;SDS011;9498;51.862;19.460;2022-12-08T09:27:40;56.63;;;22.30;;
18738;SDS011;9498;51.862;19.460;2022-12-08T09:30:07;55.67;;;23.17;;
18738;SDS011;9498;51.862;19.460;2022-12-08T09:32:35;57.77;;;23.17;;
18738;SDS011;9498;51.862;19.460;2022-12-08T09:35:02;52.57;;;22.87;;
18738;SDS011;9498;51.862;19.460;2022-12-08T09:37:31;57.63;;;23.83;;
18738;SDS011;9498;51.862;19.460;2022-12-08T09:39:58;53.10;;;22.70;;
18738;SDS011;9498;51.862;19.460;2022-12-08T09:42:28;60.90;;;23.43;;
18738;SDS011;9498;51.862;19.460;2022-12-08T09:44:58;51.07;;;22.53;;
18738;SDS011;9498;51.862;19.460;2022-12-08T09:47:29;71.90;;;23.57;;
18738;SDS011;9498;51.862;19.460;2022-12-08T09:49:58;54.93;;;22.13;;
18738;SDS011;9498;51.862;19.460;2022-12-08T09:52:29;52.40;;;21.23;;
18738;SDS011;9498;51.862;19.460;2022-12-08T09:55:02;51.00;;;20.47;;
18738;SDS011;9498;51.862;19.460;2022-12-08T09:57:30;54.23;;;22.70;;
18738;SDS011;9498;51.862;19.460;2022-12-08T09:59:59;53.97;;;21.67;;
18738;SDS011;9498;51.862;19.460;2022-12-08T10:02:28;55.40;;;21.63;;
18738;SDS011;9498;51.862;19.460;2022-12-08T10:04:56;53.30;;;21.97;;
18738;SDS011;9498;51.862;19.460;2022-12-08T10:07:26;49.70;;;21.07;;
18738;SDS011;9498;51.862;19.460;2022-12-08T10:09:57;46.60;;;21.63;;
18738;SDS011;9498;51.862;19.460;2022-12-08T10:12:27;56.30;;;23.10;;
18738;SDS011;9498;51.862;19.460;2022-12-08T10:14:58;49.43;;;21.40;;
18738;SDS011;9498;51.862;19.460;2022-12-08T10:17:29;52.80;;;21.33;;
18738;SDS011;9498;51.862;19.460;2022-12-08T10:19:59;45.80;;;20.63;;
18738;SDS011;9498;51.862;19.460;2022-12-08T10:22:30;52.13;;;21.80;;
18738;SDS011;9498;51.862;19.460;2022-12-08T10:24:59;55.77;;;22.20;;
18738;SDS011;9498;51.862;19.460;2022-12-08T10:27:27;51.33;;;22.87;;
18738;SDS011;9498;51.862;19.460;2022-12-08T10:29:55;46.10;;;22.20;;
18738;SDS011;9498;51.862;19.460;2022-12-08T10:32:22;52.73;;;22.40;;
18738;SDS011;9498;51.862;19.460;2022-12-08T10:35:00;49.47;;;21.03;;
18738;SDS011;9498;51.862;19.460;2022-12-08T10:37:29;59.27;;;22.03;;
18738;SDS011;9498;51.862;19.460;2022-12-08T10:40:00;56.23;;;23.30;;
18738;SDS011;9498;51.862;19.460;2022-12-08T10:42:32;57.53;;;22.07;;
18738;SDS011;9498;51.862;19.460;2022-12-08T10:45:02;51.00;;;21.90;;
18738;SDS011;9498;51.862;19.460;2022-12-08T10:47:29;48.07;;;21.53;;
18738;SDS011;9498;51.862;19.460;2022-12-08T10:50:05;51.90;;;21.97;;
18738;SDS011;9498;51.862;19.460;2022-12-08T10:52:36;58.77;;;22.87;;
18738;SDS011;9498;51.862;19.460;2022-12-08T10:55:11;55.20;;;23.03;;
18738;SDS011;9498;51.862;19.460;2022-12-08T10:57:40;56.53;;;22.97;;
18738;SDS011;9498;51.862;19.460;2022-12-08T11:00:10;57.67;;;23.63;;
18738;SDS011;9498;51.862;19.460;2022-12-08T11:02:48;53.80;;;22.77;;
18738;SDS011;9498;51.862;19.460;2022-12-08T11:05:16;61.33;;;25.03;;
18738;SDS011;9498;51.862;19.460;2022-12-08T11:07:45;67.13;;;24.80;;
18738;SDS011;9498;51.862;19.460;2022-12-08T11:10:14;65.68;;;29.10;;
18738;SDS011;9498;51.862;19.460;2022-12-08T11:12:44;58.03;;;24.93;;
18738;SDS011;9498;51.862;19.460;2022-12-08T11:15:13;59.17;;;26.60;;
18738;SDS011;9498;51.862;19.460;2022-12-08T11:17:41;52.47;;;22.93;;
18738;SDS011;9498;51.862;19.460;2022-12-08T11:20:18;51.90;;;22.33;;
18738;SDS011;9498;51.862;19.460;2022-12-08T11:22:50;59.80;;;23.73;;
18738;SDS011;9498;51.862;19.460;2022-12-08T11:25:18;53.37;;;21.67;;
18738;SDS011;9498;51.862;19.460;2022-12-08T11:27:48;60.45;;;26.63;;
18738;SDS011;9498;51.862;19.460;2022-12-08T11:30:17;55.87;;;22.43;;
18738;SDS011;9498;51.862;19.460;2022-12-08T11:32:46;53.30;;;21.53;;
18738;SDS011;9498;51.862;19.460;2022-12-08T11:35:18;52.17;;;22.07;;
18738;SDS011;9498;51.862;19.460;2022-12-08T11:37:46;53.10;;;20.53;;
18738;SDS011;9498;51.862;19.460;2022-12-08T11:40:14;53.33;;;21.13;;
18738;SDS011;9498;51.862;19.460;2022-12-08T11:42:44;48.97;;;21.00;;
18738;SDS011;9498;51.862;19.460;2022-12-08T11:45:18;48.50;;;20.60;;
18738;SDS011;9498;51.862;19.460;2022-12-08T11:47:46;49.20;;;20.37;;
18738;SDS011;9498;51.862;19.460;2022-12-08T11:50:17;56.03;;;24.67;;
18738;SDS011;9498;51.862;19.460;2022-12-08T11:52:46;44.27;;;20.83;;
18738;SDS011;9498;51.862;19.460;2022-12-08T11:55:18;57.73;;;22.83;;
18738;SDS011;9498;51.862;19.460;2022-12-08T11:57:47;60.63;;;25.97;;
18738;SDS011;9498;51.862;19.460;2022-12-08T12:00:18;58.57;;;24.90;;
18738;SDS011;9498;51.862;19.460;2022-12-08T12:02:47;56.53;;;23.03;;
18738;SDS011;9498;51.862;19.460;2022-12-08T12:05:21;51.77;;;22.60;;
18738;SDS011;9498;51.862;19.460;2022-12-08T12:07:53;53.67;;;22.97;;
18738;SDS011;9498;51.862;19.460;2022-12-08T12:10:26;48.30;;;21.53;;
18738;SDS011;9498;51.862;19.460;2022-12-08T12:12:59;44.63;;;19.93;;
18738;SDS011;9498;51.862;19.460;2022-12-08T12:15:45;48.50;;;21.88;;
18738;SDS011;9498;51.862;19.460;2022-12-08T12:18:16;48.20;;;21.07;;
18738;SDS011;9498;51.862;19.460;2022-12-08T12:20:49;49.10;;;20.47;;
18738;SDS011;9498;51.862;19.460;2022-12-08T12:23:20;44.90;;;20.03;;
18738;SDS011;9498;51.862;19.460;2022-12-08T12:25:49;51.87;;;18.57;;
18738;SDS011;9498;51.862;19.460;2022-12-08T12:28:17;46.37;;;19.37;;
18738;SDS011;9498;51.862;19.460;2022-12-08T12:30:50;47.10;;;19.83;;
18738;SDS011;9498;51.862;19.460;2022-12-08T12:33:19;47.20;;;19.67;;
18738;SDS011;9498;51.862;19.460;2022-12-08T12:35:47;47.23;;;18.80;;
18738;SDS011;9498;51.862;19.460;2022-12-08T12:38:17;44.63;;;19.60;;
18738;SDS011;9498;51.862;19.460;2022-12-08T12:41:03;40.70;;;18.13;;
18738;SDS011;9498;51.862;19.460;2022-12-08T12:43:32;41.80;;;18.03;;
18738;SDS011;9498;51.862;19.460;2022-12-08T12:51:44;36.30;;;16.33;;
18738;SDS011;9498;51.862;19.460;2022-12-08T12:54:19;34.17;;;16.03;;
18738;SDS011;9498;51.862;19.460;2022-12-08T12:56:48;41.30;;;15.93;;
18738;SDS011;9498;51.862;19.460;2022-12-08T12:59:34;36.33;;;15.80;;
18738;SDS011;9498;51.862;19.460;2022-12-08T13:02:01;33.73;;;14.87;;
18738;SDS011;9498;51.862;19.460;2022-12-08T13:04:29;30.50;;;14.03;;
18738;SDS011;9498;51.862;19.460;2022-12-08T13:06:58;33.70;;;13.73;;
18738;SDS011;9498;51.862;19.460;2022-12-08T13:09:27;33.77;;;14.30;;
18738;SDS011;9498;51.862;19.460;2022-12-08T13:11:56;32.37;;;13.93;;
18738;SDS011;9498;51.862;19.460;2022-12-08T13:14:31;34.45;;;16.48;;
18738;SDS011;9498;51.862;19.460;2022-12-08T13:17:00;30.63;;;14.27;;
18738;SDS011;9498;51.862;19.460;2022-12-08T13:19:31;30.67;;;14.00;;
18738;SDS011;9498;51.862;19.460;2022-12-08T13:22:00;29.10;;;13.13;;
18738;SDS011;9498;51.862;19.460;2022-12-08T13:24:30;36.90;;;14.17;;
18738;SDS011;9498;51.862;19.460;2022-12-08T13:32:53;29.27;;;14.13;;
18738;SDS011;9498;51.862;19.460;2022-12-08T13:35:21;31.37;;;14.47;;
18738;SDS011;9498;51.862;19.460;2022-12-08T13:37:50;33.27;;;14.40;;
18738;SDS011;9498;51.862;19.460;2022-12-08T13:40:20;30.57;;;13.53;;
18738;SDS011;9498;51.862;19.460;2022-12-08T13:42:49;38.33;;;16.42;;
18738;SDS011;9498;51.862;19.460;2022-12-08T13:45:17;34.03;;;15.70;;
18738;SDS011;9498;51.862;19.460;2022-12-08T13:47:47;34.70;;;15.47;;
18738;SDS011;9498;51.862;19.460;2022-12-08T13:50:18;36.77;;;15.47;;
18738;SDS011;9498;51.862;19.460;2022-12-08T13:52:48;36.17;;;15.30;;
18738;SDS011;9498;51.862;19.460;2022-12-08T13:55:19;34.47;;;15.57;;
18738;SDS011;9498;51.862;19.460;2022-12-08T13:57:46;34.13;;;15.37;;
18738;SDS011;9498;51.862;19.460;2022-12-08T14:00:16;32.40;;;15.80;;
18738;SDS011;9498;51.862;19.460;2022-12-08T14:02:44;38.10;;;18.07;;
18738;SDS011;9498;51.862;19.460;2022-12-08T14:05:11;33.10;;;14.77;;
18738;SDS011;9498;51.862;19.460;2022-12-08T14:07:39;33.73;;;14.57;;
18738;SDS011;9498;51.862;19.460;2022-12-08T14:10:07;38.93;;;16.60;;
18738;SDS011;9498;51.862;19.460;2022-12-08T14:12:37;42.60;;;18.33;;
18738;SDS011;9498;51.862;19.460;2022-12-08T14:15:05;31.50;;;15.87;;
18738;SDS011;9498;51.862;19.460;2022-12-08T14:17:32;36.20;;;15.63;;
18738;SDS011;9498;51.862;19.460;2022-12-08T14:20:01;35.23;;;15.47;;
18738;SDS011;9498;51.862;19.460;2022-12-08T14:22:31;37.00;;;15.43;;
18738;SDS011;9498;51.862;19.460;2022-12-08T14:24:59;41.33;;;16.83;;
18738;SDS011;9498;51.862;19.460;2022-12-08T14:27:26;41.30;;;16.70;;
18738;SDS011;9498;51.862;19.460;2022-12-08T14:29:56;35.77;;;16.00;;
18738;SDS011;9498;51.862;19.460;2022-12-08T14:32:27;36.60;;;16.43;;
18738;SDS011;9498;51.862;19.460;2022-12-08T14:34:56;39.53;;;16.77;;
18738;SDS011;9498;51.862;19.460;2022-12-08T14:37:24;44.30;;;16.37;;
18738;SDS011;9498;51.862;19.460;2022-12-08T14:39:52;39.30;;;15.63;;
18738;SDS011;9498;51.862;19.460;2022-12-08T14:42:24;44.35;;;19.60;;
18738;SDS011;9498;51.862;19.460;2022-12-08T14:44:56;43.07;;;16.67;;
18738;SDS011;9498;51.862;19.460;2022-12-08T14:47:27;40.43;;;17.27;;
18738;SDS011;9498;51.862;19.460;2022-12-08T14:49:54;40.70;;;18.63;;
18738;SDS011;9498;51.862;19.460;2022-12-08T14:52:22;41.10;;;18.47;;
18738;SDS011;9498;51.862;19.460;2022-12-08T14:54:50;56.57;;;21.13;;
18738;SDS011;9498;51.862;19.460;2022-12-08T14:57:18;49.50;;;20.17;;